Nyssa, Oregon
Current Conditions -  °F | °C
As of 12:53 PM on Thursday 29 Jan 2015 (Local Time) from KONO Reporting Station
Overcast Overcast  
Wind Chill: 37°   Ceiling: 4000
Heat Index: 41°   Visibility: 10mi
Dew Point: 35°   Wind: 6mph
Humidity: 79%   Direction: 360°N
Pressure: 30.45"   Gusts: NA
Location:  43.88°N, 116.99°W
Report Text: KONO 291953Z AUTO 36005KT 10SM OVC040 05/02 A3045 RMK AO2 SLP330 T00500017
Loading
Personal Weather Stations






























Interactive Weather Map New forecast layout! Learn more

10-Day Weather Forecast

Advertisements
Track Severe Weather on mobile